createdAt,value
2022-10-24T00:01:43.316Z,77.15
2022-10-24T00:05:47.486Z,126.57
2022-10-24T00:09:49.358Z,163.65
2022-10-24T00:13:51.806Z,107.45
2022-10-24T00:17:53.784Z,156.85
2022-10-24T00:21:55.507Z,154.80
2022-10-24T00:26:01.897Z,121.93
2022-10-24T00:30:05.408Z,89.25
2022-10-24T00:34:07.364Z,225.73
2022-10-24T00:38:09.033Z,112.60
2022-10-24T00:42:12.711Z,112.53
2022-10-24T00:46:16.617Z,176.95
2022-10-24T00:50:18.546Z,155.13
2022-10-24T00:54:20.771Z,119.53
2022-10-24T00:58:27.576Z,120.00
2022-10-24T01:02:29.248Z,142.48
2022-10-24T01:07:09.700Z,164.55
2022-10-24T01:11:44.901Z,179.55
2022-10-24T01:15:56.628Z,116.75
2022-10-24T01:20:16.288Z,156.75
2022-10-24T01:24:45.959Z,103.28
2022-10-24T01:33:18.650Z,164.93
2022-10-24T01:37:27.806Z,85.17
2022-10-24T01:41:31.209Z,139.20
2022-10-24T01:45:36.289Z,167.10
2022-10-24T01:49:41.146Z,136.15
2022-10-24T01:53:44.657Z,130.75
2022-10-24T01:57:46.861Z,168.13
2022-10-24T02:01:48.742Z,160.02
2022-10-24T02:05:58.302Z,167.43
2022-10-24T02:10:06.302Z,193.75
2022-10-24T02:14:36.903Z,284.65
2022-10-24T02:18:39.971Z,256.13
2022-10-24T02:23:14.121Z,184.40
2022-10-24T02:27:21.371Z,299.35
2022-10-24T02:31:27.220Z,201.25
2022-10-24T02:35:32.672Z,192.35
2022-10-24T02:39:35.218Z,222.82
2022-10-24T02:43:38.668Z,177.60
2022-10-24T02:47:43.731Z,168.98
2022-10-24T02:51:47.339Z,176.63
2022-10-24T02:55:49.256Z,189.63
2022-10-24T02:59:50.908Z,139.13
2022-10-24T03:03:52.736Z,151.63
2022-10-24T03:07:54.437Z,150.85
2022-10-24T03:11:56.245Z,123.95
2022-10-24T03:15:58.508Z,150.30
2022-10-24T03:20:00.538Z,161.27
2022-10-24T03:24:02.206Z,139.60
2022-10-24T03:28:04.852Z,144.40
2022-10-24T03:32:06.683Z,146.38
2022-10-24T03:36:08.972Z,139.60
2022-10-24T03:40:11.680Z,142.25
2022-10-24T03:44:13.473Z,155.82
2022-10-24T03:48:15.112Z,140.05
2022-10-24T03:52:17.035Z,149.75
2022-10-24T03:56:18.845Z,119.32
2022-10-24T04:00:21.350Z,119.05
2022-10-24T04:04:23.361Z,130.75
2022-10-24T04:08:25.203Z,103.18
2022-10-24T04:12:26.895Z,141.35
2022-10-24T04:16:29.169Z,93.05
2022-10-24T04:20:30.801Z,106.22
2022-10-24T04:24:33.340Z,101.40
2022-10-24T04:28:35.321Z,105.75
2022-10-24T04:32:37.697Z,96.47
2022-10-24T04:36:39.415Z,98.72
2022-10-24T04:40:51.944Z,109.65
2022-10-24T04:44:53.609Z,91.43
2022-10-24T04:48:55.374Z,101.45
2022-10-24T04:52:57.244Z,108.75
2022-10-24T04:56:59.583Z,103.00
2022-10-24T05:01:01.430Z,109.85
2022-10-24T05:05:04.096Z,108.68
2022-10-24T05:09:05.851Z,104.97
2022-10-24T05:13:07.663Z,99.97
2022-10-24T05:17:09.492Z,104.57
2022-10-24T05:21:11.630Z,111.63
2022-10-24T05:25:13.545Z,108.95
2022-10-24T05:29:15.565Z,106.93
2022-10-24T05:33:17.240Z,144.55
2022-10-24T05:37:19.103Z,112.80
2022-10-24T05:41:21.058Z,95.60
2022-10-24T05:45:23.039Z,99.70
2022-10-24T05:49:24.989Z,114.72
2022-10-24T05:53:27.282Z,113.65
2022-10-24T05:57:30.026Z,119.57
2022-10-24T06:01:32.153Z,115.13
2022-10-24T06:05:34.057Z,102.50
2022-10-24T06:09:35.899Z,100.68
2022-10-24T06:13:38.295Z,109.18
2022-10-24T06:17:40.265Z,97.82
2022-10-24T06:21:41.978Z,90.88
2022-10-24T06:25:43.839Z,100.53
2022-10-24T06:29:45.644Z,92.35
2022-10-24T06:33:47.574Z,93.15
2022-10-24T06:37:50.223Z,96.63
2022-10-24T06:41:52.431Z,81.35
2022-10-24T06:45:55.504Z,78.63
2022-10-24T06:49:57.373Z,83.75
2022-10-24T06:53:59.913Z,74.25
2022-10-24T06:58:01.841Z,75.65
2022-10-24T07:02:06.010Z,71.93
2022-10-24T07:10:29.975Z,72.18
2022-10-24T07:14:31.827Z,71.40
2022-10-24T07:18:33.779Z,78.90
2022-10-24T07:22:36.033Z,74.72
2022-10-24T07:26:39.106Z,79.25
2022-10-24T07:30:44.086Z,74.43
2022-10-24T07:34:47.770Z,68.22
2022-10-24T07:38:51.819Z,63.45
2022-10-24T07:42:53.549Z,72.93
2022-10-24T07:46:55.787Z,82.47
2022-10-24T07:50:57.695Z,81.20
2022-10-24T07:54:59.651Z,88.50
2022-10-24T07:59:09.227Z,97.25
2022-10-24T08:03:11.762Z,75.43
2022-10-24T08:07:13.832Z,69.80
2022-10-24T08:11:19.478Z,64.95
2022-10-24T08:15:23.063Z,65.40
2022-10-24T08:23:33.755Z,71.38
2022-10-24T08:27:36.076Z,59.30
2022-10-24T08:31:38.664Z,60.22
2022-10-24T08:35:43.536Z,54.78
2022-10-24T08:39:45.291Z,61.33
2022-10-24T08:43:47.459Z,52.88
2022-10-24T08:48:07.120Z,54.33
2022-10-24T08:52:30.411Z,45.78
2022-10-24T08:56:33.962Z,52.42
2022-10-24T09:00:42.586Z,51.53
2022-10-24T09:04:58.227Z,51.10
2022-10-24T09:09:06.047Z,48.75
2022-10-24T09:13:13.770Z,46.70
2022-10-24T09:17:33.725Z,44.97
2022-10-24T09:21:35.516Z,44.47
2022-10-24T09:25:41.507Z,43.10
2022-10-24T09:29:43.647Z,45.40
2022-10-24T09:33:47.869Z,41.72
2022-10-24T09:37:55.856Z,41.80
2022-10-24T09:41:59.616Z,41.53
2022-10-24T09:46:06.212Z,38.85
2022-10-24T09:50:22.494Z,40.47
2022-10-24T09:54:28.121Z,38.60
2022-10-24T09:58:34.123Z,42.55
2022-10-24T10:02:36.614Z,37.33
2022-10-24T10:06:44.676Z,37.22
2022-10-24T10:10:57.804Z,35.77
2022-10-24T10:15:02.665Z,37.13
2022-10-24T10:19:15.153Z,33.97
2022-10-24T10:23:22.521Z,35.53
2022-10-24T10:27:34.922Z,37.10
2022-10-24T10:31:48.628Z,40.35
2022-10-24T10:36:16.446Z,35.20
2022-10-24T10:40:39.888Z,36.75
2022-10-24T10:44:55.134Z,32.58
2022-10-24T10:49:12.039Z,35.10
2022-10-24T10:53:31.705Z,33.83
2022-10-24T10:57:59.488Z,36.20
2022-10-24T11:02:23.301Z,35.05
2022-10-24T11:06:36.875Z,31.55
2022-10-24T11:10:44.765Z,35.38
2022-10-24T11:15:00.867Z,32.80
2022-10-24T11:19:26.103Z,31.35
2022-10-24T11:23:40.965Z,28.15
2022-10-24T11:27:55.243Z,23.27
2022-10-24T11:32:14.792Z,25.67
2022-10-24T11:36:23.164Z,22.85
2022-10-24T11:45:00.212Z,24.48
2022-10-24T11:49:23.461Z,27.83
2022-10-24T11:53:31.541Z,23.90
2022-10-24T11:57:33.959Z,36.92
2022-10-24T12:01:55.341Z,24.67
2022-10-24T12:06:55.950Z,23.10
2022-10-24T12:11:32.247Z,25.75
2022-10-24T12:15:52.239Z,26.60
2022-10-24T12:19:54.546Z,26.98
2022-10-24T12:23:59.805Z,15.70
2022-10-24T12:28:18.190Z,18.75
2022-10-24T12:32:36.179Z,20.13
2022-10-24T12:37:03.118Z,20.83
2022-10-24T12:41:06.863Z,17.92
2022-10-24T12:45:32.175Z,15.30
2022-10-24T12:49:33.908Z,17.73
2022-10-24T12:53:55.951Z,23.05
2022-10-24T12:57:58.403Z,16.35
2022-10-24T13:02:15.535Z,14.82
2022-10-24T13:06:40.987Z,21.83
2022-10-24T13:11:13.503Z,14.50
2022-10-24T13:15:46.144Z,16.42
2022-10-24T13:20:02.541Z,14.20
2022-10-24T13:24:16.580Z,15.10
2022-10-24T13:28:24.389Z,14.98
2022-10-24T13:32:32.370Z,15.37
2022-10-24T13:36:34.849Z,15.00
2022-10-24T13:40:36.777Z,15.00
2022-10-24T13:44:45.329Z,16.48
2022-10-24T13:48:48.870Z,16.63
2022-10-24T13:52:54.955Z,25.35
2022-10-24T13:56:59.748Z,15.68
2022-10-24T14:01:07.450Z,21.20
2022-10-24T14:05:22.227Z,14.85
2022-10-24T14:09:24.204Z,10.40
2022-10-24T14:13:28.299Z,16.75
2022-10-24T14:17:34.500Z,14.25
2022-10-24T14:21:42.474Z,15.95
2022-10-24T14:25:44.482Z,14.87
2022-10-24T14:29:56.673Z,18.45
2022-10-24T14:33:58.547Z,14.13
2022-10-24T14:38:00.662Z,11.70
2022-10-24T14:42:03.126Z,15.88
2022-10-24T14:46:13.605Z,18.23
2022-10-24T14:50:43.761Z,19.05
2022-10-24T14:55:02.479Z,20.38
2022-10-24T14:59:15.399Z,15.27
2022-10-24T15:03:17.398Z,18.15
2022-10-24T15:07:37.809Z,18.75
2022-10-24T15:11:41.905Z,19.38
2022-10-24T15:15:43.739Z,17.52
2022-10-24T15:19:47.211Z,15.80
2022-10-24T15:23:55.722Z,30.30
2022-10-24T15:28:01.206Z,23.55
2022-10-24T15:32:06.117Z,22.55
2022-10-24T15:36:26.123Z,21.45
2022-10-24T15:40:31.400Z,19.00
2022-10-24T15:44:33.576Z,18.67
2022-10-24T15:48:35.466Z,19.98
2022-10-24T15:52:37.314Z,22.08
2022-10-24T15:56:39.673Z,20.98
2022-10-24T16:00:41.737Z,29.70
2022-10-24T16:04:44.792Z,24.67
2022-10-24T16:08:46.463Z,27.88
2022-10-24T16:12:50.101Z,30.92
2022-10-24T16:16:55.430Z,22.38
2022-10-24T16:20:59.060Z,28.73
2022-10-24T16:25:00.709Z,29.23
2022-10-24T16:29:02.738Z,38.17
2022-10-24T16:33:04.751Z,37.22
2022-10-24T16:37:06.639Z,32.22
2022-10-24T16:41:15.003Z,35.53
2022-10-24T16:45:17.859Z,40.88
2022-10-24T16:49:19.520Z,36.35
2022-10-24T16:53:22.148Z,35.45
2022-10-24T17:01:28.038Z,40.55
2022-10-24T17:05:29.937Z,37.45
2022-10-24T17:09:31.897Z,30.50
2022-10-24T17:13:33.696Z,28.38
2022-10-24T17:17:36.177Z,33.47
2022-10-24T17:21:37.811Z,41.03
2022-10-24T17:25:40.024Z,42.17
2022-10-24T17:29:43.083Z,36.40
2022-10-24T17:33:45.124Z,36.30
2022-10-24T17:38:40.140Z,46.55
2022-10-24T17:42:43.356Z,45.40
2022-10-24T17:46:45.838Z,39.15
2022-10-24T17:50:48.211Z,43.65
2022-10-24T17:54:50.718Z,71.03
2022-10-24T17:58:52.626Z,131.35
2022-10-24T18:02:54.489Z,112.50
2022-10-24T18:06:56.577Z,116.35
2022-10-24T18:11:04.027Z,142.98
2022-10-24T18:15:08.259Z,132.65
2022-10-24T18:19:10.020Z,102.57
2022-10-24T18:23:11.858Z,77.15
2022-10-24T18:27:13.537Z,74.93
2022-10-24T18:31:21.451Z,63.90
2022-10-24T18:35:23.414Z,62.47
2022-10-24T18:39:29.152Z,55.42
2022-10-24T18:43:31.896Z,50.85
2022-10-24T18:47:34.206Z,66.78
2022-10-24T18:52:01.312Z,52.42
2022-10-24T18:56:03.456Z,54.03
2022-10-24T19:00:06.682Z,66.82
2022-10-24T19:04:21.049Z,86.00
2022-10-24T19:08:25.489Z,97.20
2022-10-24T19:12:28.272Z,100.20
2022-10-24T19:16:32.396Z,85.35
2022-10-24T19:20:35.712Z,84.50
2022-10-24T19:24:37.429Z,68.95
2022-10-24T19:28:39.428Z,73.88
2022-10-24T19:32:41.173Z,88.70
2022-10-24T19:36:43.031Z,79.78
2022-10-24T19:40:52.881Z,72.65
2022-10-24T19:44:56.454Z,80.18
2022-10-24T19:48:58.078Z,80.43
2022-10-24T19:52:59.969Z,86.13
2022-10-24T19:57:01.755Z,77.38
2022-10-24T20:01:16.759Z,84.38
2022-10-24T20:05:18.694Z,83.82
2022-10-24T20:09:20.636Z,88.57
2022-10-24T20:13:22.597Z,93.13
2022-10-24T20:17:24.514Z,102.10
2022-10-24T20:21:26.353Z,86.85
2022-10-24T20:25:28.234Z,94.30
2022-10-24T20:29:29.891Z,79.63
2022-10-24T20:33:32.423Z,74.28
2022-10-24T20:37:34.222Z,81.63
2022-10-24T20:41:37.022Z,75.78
2022-10-24T20:45:40.129Z,82.78
2022-10-24T20:49:41.941Z,95.22
2022-10-24T20:53:44.001Z,76.50
2022-10-24T20:57:45.974Z,78.88
2022-10-24T21:01:47.708Z,71.43
2022-10-24T21:05:49.679Z,74.28
2022-10-24T21:09:51.341Z,87.50
2022-10-24T21:14:05.428Z,74.82
2022-10-24T21:18:07.055Z,69.75
2022-10-24T21:22:09.109Z,79.35
2022-10-24T21:26:13.344Z,81.25
2022-10-24T21:30:15.484Z,80.43
2022-10-24T21:34:18.262Z,68.95
2022-10-24T21:38:20.195Z,70.78
2022-10-24T21:42:21.794Z,74.50
2022-10-24T21:46:26.391Z,75.20
2022-10-24T21:50:28.002Z,77.05
2022-10-24T21:54:30.463Z,81.60
2022-10-24T21:58:32.582Z,84.80
2022-10-24T22:02:34.779Z,74.55
2022-10-24T22:06:37.423Z,63.88
2022-10-24T22:10:39.512Z,85.10
2022-10-24T22:14:41.169Z,65.45
2022-10-24T22:18:43.032Z,75.28
2022-10-24T22:22:44.849Z,61.05
2022-10-24T22:26:47.729Z,63.00
2022-10-24T22:30:49.619Z,68.50
2022-10-24T22:34:51.736Z,85.07
2022-10-24T22:38:54.536Z,82.85
2022-10-24T22:42:57.261Z,68.72
2022-10-24T22:47:21.722Z,58.15
2022-10-24T22:51:23.825Z,69.32
2022-10-24T22:55:33.207Z,79.93
2022-10-24T22:59:35.527Z,68.72
2022-10-24T23:03:46.559Z,65.07
2022-10-24T23:08:04.843Z,83.40
2022-10-24T23:12:15.946Z,80.88
2022-10-24T23:16:29.403Z,66.25
2022-10-24T23:20:39.275Z,74.88
2022-10-24T23:24:41.468Z,82.50
2022-10-24T23:28:54.081Z,74.03
2022-10-24T23:32:56.322Z,89.47
2022-10-24T23:37:04.125Z,66.10
2022-10-24T23:41:10.511Z,70.22
2022-10-24T23:45:16.991Z,62.40
2022-10-24T23:49:34.910Z,88.60
2022-10-24T23:53:49.977Z,65.05
2022-10-24T23:57:51.809Z,73.80
